createdAt,value
2016-07-17T00:00:07.920Z,0
2016-07-17T00:01:08.600Z,0
2016-07-17T00:02:08.608Z,0
2016-07-17T00:03:09.320Z,0
2016-07-17T00:04:08.660Z,0
2016-07-17T00:05:08.568Z,0
2016-07-17T00:06:09.287Z,0
2016-07-17T00:07:08.537Z,0
2016-07-17T00:08:08.534Z,0
2016-07-17T00:09:09.238Z,0
2016-07-17T00:10:08.524Z,0
2016-07-17T00:11:09.221Z,0
2016-07-17T00:12:09.270Z,0
2016-07-17T00:13:07.776Z,0
2016-07-17T00:14:09.218Z,0
2016-07-17T00:15:09.188Z,0
2016-07-17T00:16:07.007Z,0
2016-07-17T00:17:09.139Z,0
2016-07-17T00:18:09.218Z,0
2016-07-17T00:19:07.696Z,0
2016-07-17T00:20:08.392Z,0
2016-07-17T00:21:09.310Z,0
2016-07-17T00:22:08.368Z,0
2016-07-17T00:23:08.409Z,0
2016-07-17T00:24:09.050Z,0
2016-07-17T00:25:09.073Z,0
2016-07-17T00:26:08.322Z,0
2016-07-17T00:27:08.334Z,0
2016-07-17T00:28:08.296Z,0
2016-07-17T00:29:08.991Z,0
2016-07-17T00:30:08.272Z,0
2016-07-17T00:31:08.960Z,0
2016-07-17T00:32:08.259Z,0
2016-07-17T00:33:08.960Z,0
2016-07-17T00:34:08.968Z,0
2016-07-17T00:35:08.950Z,0
2016-07-17T00:36:06.762Z,0
2016-07-17T00:37:08.198Z,0
2016-07-17T00:38:07.451Z,0
2016-07-17T00:39:08.878Z,0
2016-07-17T00:40:08.878Z,0
2016-07-17T00:41:08.852Z,0
2016-07-17T00:42:08.149Z,0
2016-07-17T00:43:08.850Z,0
2016-07-17T00:44:08.112Z,0
2016-07-17T00:45:08.167Z,0
2016-07-17T00:46:08.787Z,0
2016-07-17T00:47:08.140Z,0
2016-07-17T00:48:08.064Z,0
2016-07-17T00:49:08.777Z,0
2016-07-17T00:50:08.739Z,0
2016-07-17T00:51:08.067Z,0
2016-07-17T00:52:08.740Z,0
2016-07-17T00:53:08.720Z,0
2016-07-17T00:54:07.272Z,0
2016-07-17T00:55:08.696Z,0
2016-07-17T00:56:08.686Z,0
2016-07-17T00:57:08.678Z,0
2016-07-17T00:58:08.651Z,0
2016-07-17T00:59:08.689Z,0
2016-07-17T01:00:07.938Z,0
2016-07-17T01:01:08.645Z,0
2016-07-17T01:02:07.897Z,0
2016-07-17T01:03:07.876Z,0
2016-07-17T01:04:08.592Z,0
2016-07-17T01:05:08.575Z,0
2016-07-17T01:06:08.572Z,0
2016-07-17T01:07:07.877Z,0
2016-07-17T01:08:08.546Z,0
2016-07-17T01:09:08.620Z,0
2016-07-17T01:10:08.518Z,0
2016-07-17T01:11:07.801Z,0
2016-07-17T01:12:08.511Z,0
2016-07-17T01:13:08.501Z,0
2016-07-17T01:14:07.755Z,0
2016-07-17T01:15:07.749Z,0
2016-07-17T01:16:08.476Z,0
2016-07-17T01:17:08.450Z,0
2016-07-17T01:18:07.706Z,0
2016-07-17T01:19:08.478Z,0
2016-07-17T01:20:08.411Z,0
2016-07-17T01:21:08.447Z,0
2016-07-17T01:22:08.379Z,0
2016-07-17T01:23:08.430Z,0
2016-07-17T01:24:07.638Z,0
2016-07-17T01:25:08.368Z,0
2016-07-17T01:26:07.618Z,0
2016-07-17T01:27:07.607Z,0
2016-07-17T01:28:07.671Z,0
2016-07-17T01:29:06.947Z,0
2016-07-17T01:30:07.647Z,0
2016-07-17T01:31:08.336Z,0
2016-07-17T01:32:08.282Z,0
2016-07-17T01:33:06.818Z,0
2016-07-17T01:34:06.823Z,0
2016-07-17T01:35:07.530Z,0
2016-07-17T01:36:07.628Z,0
2016-07-17T01:37:08.207Z,0
2016-07-17T01:38:08.250Z,0
2016-07-17T01:39:08.188Z,0
2016-07-17T01:40:08.178Z,0
2016-07-17T01:41:07.452Z,0
2016-07-17T01:42:08.150Z,0
2016-07-17T01:43:08.020Z,0
2016-07-17T01:44:07.480Z,0
2016-07-17T01:45:06.698Z,0
2016-07-17T01:46:07.480Z,0
2016-07-17T01:47:08.105Z,0
2016-07-17T01:48:07.499Z,0
2016-07-17T01:49:06.644Z,0
2016-07-17T01:50:08.055Z,0
2016-07-17T01:51:08.062Z,0
2016-07-17T01:52:08.040Z,0
2016-07-17T01:53:07.311Z,0
2016-07-17T01:54:08.072Z,0
2016-07-17T01:55:06.565Z,0
2016-07-17T01:56:08.001Z,0
2016-07-17T01:57:07.988Z,0
2016-07-17T01:58:08.061Z,0
2016-07-17T01:59:07.241Z,0
2016-07-17T02:00:07.980Z,0
2016-07-17T02:01:07.939Z,0
2016-07-17T02:02:07.217Z,0
2016-07-17T02:03:06.491Z,0
2016-07-17T02:04:07.909Z,0
2016-07-17T02:05:07.171Z,0
2016-07-17T02:06:07.928Z,0
2016-07-17T02:07:07.876Z,0
2016-07-17T02:08:07.869Z,0
2016-07-17T02:09:07.836Z,0
2016-07-17T02:10:07.107Z,0
2016-07-17T02:11:07.822Z,0
2016-07-17T02:12:07.851Z,0
2016-07-17T02:13:07.777Z,0
2016-07-17T02:14:07.781Z,0
2016-07-17T02:15:07.759Z,0
2016-07-17T02:16:07.770Z,0
2016-07-17T02:17:07.750Z,0
2016-07-17T02:18:06.311Z,0
2016-07-17T02:19:07.738Z,0
2016-07-17T02:20:06.996Z,0
2016-07-17T02:21:07.016Z,0
2016-07-17T02:22:06.970Z,0
2016-07-17T02:23:06.305Z,0
2016-07-17T02:24:06.229Z,0
2016-07-17T02:25:06.963Z,0
2016-07-17T02:26:06.231Z,0
2016-07-17T02:27:06.917Z,0
2016-07-17T02:28:06.899Z,0
2016-07-17T02:29:06.898Z,0
2016-07-17T02:30:07.600Z,0
2016-07-17T02:31:07.589Z,0
2016-07-17T02:32:07.560Z,0
2016-07-17T02:33:06.138Z,0
2016-07-17T02:34:06.844Z,0
2016-07-17T02:35:06.814Z,0
2016-07-17T02:36:06.083Z,0
2016-07-17T02:37:06.808Z,0
2016-07-17T02:38:06.788Z,0
2016-07-17T02:39:06.071Z,0
2016-07-17T02:40:07.480Z,0
2016-07-17T02:41:07.480Z,0
2016-07-17T02:42:07.455Z,0
2016-07-17T02:43:07.439Z,0
2016-07-17T02:44:07.452Z,0
2016-07-17T02:45:07.407Z,0
2016-07-17T02:46:06.688Z,0
2016-07-17T02:47:07.414Z,0
2016-07-17T02:48:06.679Z,0
2016-07-17T02:49:06.655Z,0
2016-07-17T02:50:07.359Z,0
2016-07-17T02:51:07.351Z,0
2016-07-17T02:52:05.921Z,0
2016-07-17T02:53:07.338Z,0
2016-07-17T02:54:07.307Z,0
2016-07-17T02:55:07.328Z,0
2016-07-17T02:56:07.322Z,0
2016-07-17T02:57:07.388Z,0
2016-07-17T02:58:07.271Z,0
2016-07-17T02:59:07.248Z,0
2016-07-17T03:00:07.260Z,0
2016-07-17T03:01:07.251Z,0
2016-07-17T03:02:06.513Z,0
2016-07-17T03:03:07.220Z,0
2016-07-17T03:04:05.842Z,0
2016-07-17T03:05:05.810Z,0
2016-07-17T03:06:06.471Z,0
2016-07-17T03:07:07.206Z,0
2016-07-17T03:08:07.140Z,0
2016-07-17T03:09:05.719Z,0
2016-07-17T03:10:07.151Z,0
2016-07-17T03:11:07.120Z,0
2016-07-17T03:12:06.387Z,0
2016-07-17T03:13:06.387Z,0
2016-07-17T03:14:05.649Z,0
2016-07-17T03:15:06.380Z,0
2016-07-17T03:16:07.048Z,0
2016-07-17T03:17:07.073Z,0
2016-07-17T03:18:05.609Z,0
2016-07-17T03:19:06.297Z,0
2016-07-17T03:20:06.309Z,0
2016-07-17T03:21:06.307Z,0
2016-07-17T03:22:05.556Z,0
2016-07-17T03:23:06.249Z,0
2016-07-17T03:24:06.254Z,0
2016-07-17T03:25:05.525Z,0
2016-07-17T03:26:06.290Z,0
2016-07-17T03:27:06.911Z,0
2016-07-17T03:28:06.217Z,0
2016-07-17T03:29:06.961Z,0
2016-07-17T03:30:06.227Z,0
2016-07-17T03:31:06.171Z,0
2016-07-17T03:32:06.869Z,0
2016-07-17T03:33:05.429Z,0
2016-07-17T03:34:06.829Z,0
2016-07-17T03:35:06.141Z,0
2016-07-17T03:36:06.109Z,0
2016-07-17T03:37:06.067Z,0
2016-07-17T03:38:05.361Z,0
2016-07-17T03:39:06.068Z,0
2016-07-17T03:40:06.775Z,0
2016-07-17T03:41:06.037Z,0
2016-07-17T03:42:06.091Z,0
2016-07-17T03:43:06.755Z,0
2016-07-17T03:44:05.298Z,0
2016-07-17T03:45:06.727Z,0
2016-07-17T03:46:06.695Z,0
2016-07-17T03:47:06.688Z,0
2016-07-17T03:48:05.228Z,0
2016-07-17T03:49:05.235Z,0
2016-07-17T03:50:05.991Z,0
2016-07-17T03:51:06.640Z,0
2016-07-17T03:52:05.938Z,0
2016-07-17T03:53:05.177Z,0
2016-07-17T03:54:06.695Z,5
2016-07-17T03:55:05.899Z,5
2016-07-17T03:56:06.566Z,5
2016-07-17T03:57:06.569Z,5
2016-07-17T03:58:05.836Z,5
2016-07-17T03:59:06.557Z,5
2016-07-17T04:00:05.890Z,5
2016-07-17T04:01:06.519Z,5
2016-07-17T04:02:06.600Z,5
2016-07-17T04:03:06.499Z,5
2016-07-17T04:04:05.846Z,5
2016-07-17T04:05:06.490Z,5
2016-07-17T04:06:05.769Z,5
2016-07-17T04:07:05.730Z,5
2016-07-17T04:08:06.497Z,5
2016-07-17T04:09:05.050Z,10
2016-07-17T04:10:06.431Z,10
2016-07-17T04:11:05.718Z,10
2016-07-17T04:12:05.689Z,10
2016-07-17T04:13:05.670Z,10
2016-07-17T04:14:06.384Z,10
2016-07-17T04:15:06.348Z,10
2016-07-17T04:16:06.356Z,10
2016-07-17T04:17:05.630Z,10
2016-07-17T04:18:05.619Z,10
2016-07-17T04:19:05.591Z,10
2016-07-17T04:20:05.593Z,10
2016-07-17T04:21:06.290Z,10
2016-07-17T04:22:04.839Z,10
2016-07-17T04:23:05.542Z,10
2016-07-17T04:24:06.317Z,10
2016-07-17T04:25:05.527Z,10
2016-07-17T04:26:06.273Z,10
2016-07-17T04:27:05.511Z,10
2016-07-17T04:28:05.488Z,10
2016-07-17T04:29:06.201Z,10
2016-07-17T04:30:05.485Z,10
2016-07-17T04:31:05.460Z,15
2016-07-17T04:32:06.170Z,15
2016-07-17T04:33:06.141Z,15
2016-07-17T04:34:06.152Z,15
2016-07-17T04:35:05.481Z,15
2016-07-17T04:36:04.691Z,15
2016-07-17T04:37:06.099Z,20
2016-07-17T04:38:05.381Z,20
2016-07-17T04:39:06.090Z,20
2016-07-17T04:40:06.072Z,20
2016-07-17T04:41:06.071Z,25
2016-07-17T04:42:05.325Z,25
2016-07-17T04:43:06.050Z,25
2016-07-17T04:44:05.311Z,25
2016-07-17T04:45:06.111Z,25
2016-07-17T04:46:04.680Z,25
2016-07-17T04:47:05.990Z,30
2016-07-17T04:48:05.270Z,30
2016-07-17T04:49:05.314Z,30
2016-07-17T04:50:05.250Z,30
2016-07-17T04:51:05.290Z,30
2016-07-17T04:52:05.949Z,30
2016-07-17T04:53:05.202Z,30
2016-07-17T04:54:05.198Z,35
2016-07-17T04:55:05.927Z,35
2016-07-17T04:56:05.879Z,40
2016-07-17T04:57:04.445Z,40
2016-07-17T04:58:05.160Z,45
2016-07-17T04:59:05.168Z,45
2016-07-17T05:00:05.128Z,45
2016-07-17T05:01:05.831Z,45
2016-07-17T05:02:05.829Z,40
2016-07-17T05:03:05.854Z,45
2016-07-17T05:04:05.078Z,45
2016-07-17T05:05:05.871Z,45
2016-07-17T05:06:05.770Z,45
2016-07-17T05:07:04.386Z,45
2016-07-17T05:08:05.031Z,45
2016-07-17T05:09:05.748Z,45
2016-07-17T05:10:05.718Z,45
2016-07-17T05:11:05.789Z,50
2016-07-17T05:12:05.002Z,50
2016-07-17T05:13:05.748Z,50
2016-07-17T05:14:05.672Z,50
2016-07-17T05:15:05.692Z,50
2016-07-17T05:16:05.642Z,50
2016-07-17T05:17:05.658Z,55
2016-07-17T05:18:05.627Z,55
2016-07-17T05:19:05.618Z,60
2016-07-17T05:20:05.639Z,65
2016-07-17T05:21:04.887Z,65
2016-07-17T05:22:05.611Z,70
2016-07-17T05:23:04.131Z,70
2016-07-17T05:24:05.560Z,70
2016-07-17T05:25:04.878Z,70
2016-07-17T05:26:04.828Z,65
2016-07-17T05:27:05.534Z,65
2016-07-17T05:28:05.530Z,65
2016-07-17T05:29:05.509Z,65
2016-07-17T05:30:05.524Z,65
2016-07-17T05:31:05.507Z,65
2016-07-17T05:32:05.478Z,65
2016-07-17T05:33:04.741Z,65
2016-07-17T05:34:05.470Z,70
2016-07-17T05:35:05.448Z,70
2016-07-17T05:36:05.436Z,70
2016-07-17T05:37:05.429Z,65
2016-07-17T05:38:04.820Z,65
2016-07-17T05:39:05.490Z,55
2016-07-17T05:40:05.384Z,60
2016-07-17T05:41:05.380Z,60
2016-07-17T05:42:05.380Z,60
2016-07-17T05:43:05.358Z,65
2016-07-17T05:44:04.630Z,65
2016-07-17T05:45:04.632Z,65
2016-07-17T05:46:05.335Z,65
2016-07-17T05:47:05.311Z,60
2016-07-17T05:48:04.590Z,60
2016-07-17T05:49:03.857Z,65
2016-07-17T05:50:04.558Z,65
2016-07-17T05:51:04.558Z,70
2016-07-17T05:52:04.575Z,75
2016-07-17T05:53:03.106Z,80
2016-07-17T05:54:04.637Z,85
2016-07-17T05:55:04.527Z,90
2016-07-17T05:56:05.260Z,85
2016-07-17T05:57:04.490Z,80
2016-07-17T05:58:05.272Z,80
2016-07-17T05:59:04.459Z,80
2016-07-17T06:00:05.249Z,80
2016-07-17T06:01:04.449Z,70
2016-07-17T06:02:04.527Z,65
2016-07-17T06:03:05.140Z,65
2016-07-17T06:04:05.218Z,60
2016-07-17T06:05:04.411Z,65
2016-07-17T06:06:05.119Z,65
2016-07-17T06:07:04.401Z,65
2016-07-17T06:08:04.391Z,65
2016-07-17T06:09:05.071Z,70
2016-07-17T06:10:05.089Z,70
2016-07-17T06:11:05.052Z,75
2016-07-17T06:12:05.065Z,85
2016-07-17T06:13:05.030Z,90
2016-07-17T06:14:05.020Z,80
2016-07-17T06:15:04.319Z,75
2016-07-17T06:16:04.996Z,70
2016-07-17T06:17:04.990Z,70
2016-07-17T06:18:03.546Z,70
2016-07-17T06:19:04.991Z,70
2016-07-17T06:20:04.240Z,70
2016-07-17T06:21:04.244Z,75
2016-07-17T06:22:04.240Z,75
2016-07-17T06:23:04.931Z,80
2016-07-17T06:24:04.213Z,80
2016-07-17T06:25:04.265Z,80
2016-07-17T06:26:04.938Z,80
2016-07-17T06:27:04.171Z,80
2016-07-17T06:28:04.191Z,85
2016-07-17T06:29:04.860Z,80
2016-07-17T06:30:04.141Z,80
2016-07-17T06:31:04.849Z,80
2016-07-17T06:32:04.106Z,80
2016-07-17T06:33:04.821Z,85
2016-07-17T06:34:03.386Z,100
2016-07-17T06:35:04.075Z,105
2016-07-17T06:36:04.076Z,115
2016-07-17T06:37:04.780Z,120
2016-07-17T06:38:03.337Z,125
2016-07-17T06:39:04.768Z,120
2016-07-17T06:40:03.317Z,115
2016-07-17T06:41:04.738Z,105
2016-07-17T06:42:04.015Z,95
2016-07-17T06:43:03.999Z,90
2016-07-17T06:44:03.990Z,85
2016-07-17T06:45:03.271Z,85
2016-07-17T06:46:03.261Z,80
2016-07-17T06:47:04.689Z,80
2016-07-17T06:48:02.548Z,75
2016-07-17T06:49:03.930Z,75
2016-07-17T06:50:03.226Z,80
2016-07-17T06:51:04.636Z,85
2016-07-17T06:52:03.218Z,80
2016-07-17T06:53:03.909Z,80
2016-07-17T06:54:04.676Z,75
2016-07-17T06:55:04.605Z,70
2016-07-17T06:56:03.877Z,65
2016-07-17T06:57:04.686Z,65
2016-07-17T06:58:03.152Z,70
2016-07-17T06:59:04.561Z,70
2016-07-17T07:00:04.547Z,75
2016-07-17T07:01:03.841Z,85
2016-07-17T07:02:03.098Z,90
2016-07-17T07:03:03.127Z,90
2016-07-17T07:04:04.508Z,85
2016-07-17T07:05:04.499Z,80
2016-07-17T07:06:03.768Z,75
2016-07-17T07:07:04.499Z,75
2016-07-17T07:08:04.471Z,75
2016-07-17T07:09:04.471Z,70
2016-07-17T07:10:03.767Z,70
2016-07-17T07:11:04.644Z,70
2016-07-17T07:12:03.711Z,75
2016-07-17T07:13:04.461Z,80
2016-07-17T07:14:03.051Z,80
2016-07-17T07:15:03.678Z,90
2016-07-17T07:16:02.942Z,100
2016-07-17T07:17:03.659Z,95
2016-07-17T07:18:04.370Z,80
2016-07-17T07:19:03.721Z,75
2016-07-17T07:20:02.211Z,75
2016-07-17T07:21:04.332Z,75
2016-07-17T07:22:02.882Z,75
2016-07-17T07:23:04.366Z,70
2016-07-17T07:24:04.299Z,70
2016-07-17T07:25:03.569Z,75
2016-07-17T07:26:03.562Z,75
2016-07-17T07:27:02.850Z,75
2016-07-17T07:28:03.549Z,85
2016-07-17T07:29:04.252Z,100
2016-07-17T07:30:04.242Z,110
2016-07-17T07:31:03.582Z,105
2016-07-17T07:32:04.222Z,100
2016-07-17T07:33:04.211Z,95
2016-07-17T07:34:03.492Z,100
2016-07-17T07:35:04.188Z,115
2016-07-17T07:36:02.902Z,140
2016-07-17T07:37:02.735Z,155
2016-07-17T07:38:02.731Z,165
2016-07-17T07:39:03.442Z,160
2016-07-17T07:40:02.719Z,150
2016-07-17T07:41:03.404Z,135
2016-07-17T07:42:03.449Z,130
2016-07-17T07:43:04.122Z,130
2016-07-17T07:44:03.431Z,125
2016-07-17T07:45:04.107Z,125
2016-07-17T07:46:03.369Z,120
2016-07-17T07:47:03.360Z,105
2016-07-17T07:48:03.428Z,85
2016-07-17T07:49:03.447Z,75
2016-07-17T07:50:02.631Z,70
2016-07-17T07:51:04.028Z,70
2016-07-17T07:52:03.382Z,70
2016-07-17T07:53:03.312Z,70
2016-07-17T07:54:03.313Z,75
2016-07-17T07:55:03.286Z,80
2016-07-17T07:56:03.260Z,85
2016-07-17T07:57:03.268Z,85
2016-07-17T07:58:03.258Z,85
2016-07-17T07:59:02.528Z,85
2016-07-17T08:00:03.238Z,85
2016-07-17T08:01:03.220Z,95
2016-07-17T08:02:03.942Z,95
2016-07-17T08:03:03.922Z,105
2016-07-17T08:04:03.228Z,115
2016-07-17T08:05:03.901Z,120
2016-07-17T08:06:02.465Z,115
2016-07-17T08:07:03.177Z,125
2016-07-17T08:08:02.432Z,135
2016-07-17T08:09:01.790Z,140
2016-07-17T08:10:02.443Z,135
2016-07-17T08:11:02.410Z,125
2016-07-17T08:12:03.089Z,120
2016-07-17T08:13:03.816Z,120
2016-07-17T08:14:02.362Z,115
2016-07-17T08:15:03.849Z,115
2016-07-17T08:16:02.361Z,115
2016-07-17T08:17:02.415Z,115
2016-07-17T08:18:03.810Z,110
2016-07-17T08:19:02.380Z,105
2016-07-17T08:20:03.736Z,110
2016-07-17T08:21:03.118Z,115
2016-07-17T08:22:03.002Z,115
2016-07-17T08:24:03.021Z,125
2016-07-17T08:25:01.550Z,135
2016-07-17T08:26:03.048Z,140
2016-07-17T08:27:03.720Z,150
2016-07-17T08:28:02.952Z,150
2016-07-17T08:29:02.261Z,130
2016-07-17T08:30:02.207Z,135
2016-07-17T08:31:02.218Z,170
2016-07-17T08:32:03.630Z,215
2016-07-17T08:33:02.894Z,180
2016-07-17T08:34:02.895Z,170
2016-07-17T08:35:02.201Z,270
2016-07-17T08:36:02.856Z,195
2016-07-17T08:37:02.224Z,255
2016-07-17T08:38:02.144Z,320
2016-07-17T08:39:02.863Z,295
2016-07-17T08:40:02.831Z,325
2016-07-17T08:41:02.890Z,435
2016-07-17T08:42:03.537Z,420
2016-07-17T08:43:02.816Z,375
2016-07-17T08:44:03.521Z,450
2016-07-17T08:45:02.788Z,435
2016-07-17T08:46:03.508Z,485
2016-07-17T08:47:02.747Z,445
2016-07-17T08:48:03.471Z,380
2016-07-17T08:49:02.038Z,395
2016-07-17T08:50:02.749Z,475
2016-07-17T08:51:03.450Z,445
2016-07-17T08:52:02.011Z,485
2016-07-17T08:53:03.451Z,440
2016-07-17T08:54:03.431Z,405
2016-07-17T08:55:02.757Z,380
2016-07-17T08:56:02.691Z,295
2016-07-17T08:57:01.971Z,225
2016-07-17T08:58:02.029Z,200
2016-07-17T08:59:03.397Z,165
2016-07-17T09:00:01.996Z,160
2016-07-17T09:01:03.380Z,180
2016-07-17T09:02:02.004Z,185
2016-07-17T09:03:02.648Z,155
2016-07-17T09:04:02.680Z,145
2016-07-17T09:05:01.209Z,170
2016-07-17T09:06:02.621Z,155
2016-07-17T09:07:02.606Z,135
2016-07-17T09:08:03.344Z,130
2016-07-17T09:09:01.877Z,145
2016-07-17T09:10:01.879Z,155
2016-07-17T09:11:02.589Z,175
2016-07-17T09:12:02.563Z,185
2016-07-17T09:13:02.578Z,195
2016-07-17T09:14:02.554Z,240
2016-07-17T09:15:03.256Z,150
2016-07-17T09:16:01.831Z,140
2016-07-17T09:17:02.522Z,135
2016-07-17T09:18:01.800Z,130
2016-07-17T09:19:01.821Z,240
2016-07-17T09:20:01.820Z,330
2016-07-17T09:21:03.206Z,265
2016-07-17T09:22:02.488Z,275
2016-07-17T09:23:02.523Z,215
2016-07-17T09:24:02.466Z,190
2016-07-17T09:25:02.466Z,230
2016-07-17T09:26:03.198Z,820
2016-07-17T09:27:01.058Z,300
2016-07-17T09:28:02.478Z,710
2016-07-17T09:29:03.148Z,850
2016-07-17T09:30:03.199Z,420
2016-07-17T09:31:02.427Z,425
2016-07-17T09:32:01.701Z,420
2016-07-17T09:33:02.407Z,405
2016-07-17T09:34:02.466Z,540
2016-07-17T09:35:01.679Z,1165
2016-07-17T09:36:01.710Z,455
2016-07-17T09:37:00.239Z,720
2016-07-17T09:38:02.375Z,745
2016-07-17T09:39:03.071Z,1105
2016-07-17T09:40:03.126Z,835
2016-07-17T09:41:01.683Z,360
2016-07-17T09:42:00.902Z,425
2016-07-17T09:43:02.330Z,250
2016-07-17T09:44:03.060Z,230
2016-07-17T09:45:03.048Z,250
2016-07-17T09:46:01.625Z,210
2016-07-17T09:47:03.041Z,160
2016-07-17T09:48:00.891Z,210
2016-07-17T09:49:03.007Z,1025
2016-07-17T09:50:03.020Z,360
2016-07-17T09:51:02.334Z,905
2016-07-17T09:52:03.001Z,1060
2016-07-17T09:53:03.028Z,910
2016-07-17T09:54:03.000Z,405
2016-07-17T09:55:01.567Z,455
2016-07-17T09:56:01.557Z,1000
2016-07-17T09:57:00.120Z,875
2016-07-17T09:58:01.547Z,395
2016-07-17T09:59:01.571Z,595
2016-07-17T10:00:00.883Z,500
2016-07-17T10:01:02.268Z,305
2016-07-17T10:02:00.860Z,475
2016-07-17T10:03:02.242Z,365
2016-07-17T10:04:02.240Z,330
2016-07-17T10:05:01.501Z,325
2016-07-17T10:06:02.951Z,765
2016-07-17T10:07:01.514Z,590
2016-07-17T10:08:02.210Z,650
2016-07-17T10:09:02.937Z,365
2016-07-17T10:10:02.219Z,850
2016-07-17T10:11:03.005Z,840
2016-07-17T10:12:02.198Z,500
2016-07-17T10:13:01.486Z,405
2016-07-17T10:14:02.895Z,310
2016-07-17T10:15:01.460Z,845
2016-07-17T10:16:02.205Z,325
2016-07-17T10:17:02.178Z,355
2016-07-17T10:18:02.318Z,340
2016-07-17T10:19:01.444Z,330
2016-07-17T10:20:02.156Z,835
2016-07-17T10:21:02.155Z,835
2016-07-17T10:22:02.148Z,825
2016-07-17T10:23:02.127Z,265
2016-07-17T10:24:02.202Z,235
2016-07-17T10:25:02.126Z,400
2016-07-17T10:26:02.107Z,755
2016-07-17T10:27:02.104Z,240
2016-07-17T10:28:01.400Z,445
2016-07-17T10:29:02.147Z,290
2016-07-17T10:30:01.459Z,305
2016-07-17T10:31:02.086Z,405
2016-07-17T10:32:02.114Z,310
2016-07-17T10:33:02.796Z,310
2016-07-17T10:34:02.842Z,525
2016-07-17T10:35:02.111Z,435
2016-07-17T10:36:01.380Z,330
2016-07-17T10:37:01.359Z,265
2016-07-17T10:38:02.811Z,365
2016-07-17T10:39:02.052Z,425
2016-07-17T10:40:02.758Z,305
2016-07-17T10:41:02.782Z,270
2016-07-17T10:42:02.028Z,265
2016-07-17T10:43:02.063Z,305
2016-07-17T10:44:02.750Z,390
2016-07-17T10:45:02.768Z,440
2016-07-17T10:46:02.042Z,310
2016-07-17T10:47:02.036Z,450
2016-07-17T10:48:02.741Z,300
2016-07-17T10:49:01.288Z,435
2016-07-17T10:50:01.999Z,320
2016-07-17T10:51:01.980Z,270
2016-07-17T10:52:01.973Z,340
2016-07-17T10:53:02.706Z,425
2016-07-17T10:54:01.250Z,415
2016-07-17T10:55:01.258Z,375
2016-07-17T10:56:01.228Z,270
2016-07-17T10:57:02.000Z,310
2016-07-17T10:58:01.218Z,285
2016-07-17T10:59:01.961Z,325
2016-07-17T11:00:01.918Z,345
2016-07-17T11:01:01.938Z,380
2016-07-17T11:02:02.687Z,380
2016-07-17T11:03:01.910Z,260
2016-07-17T11:04:01.887Z,290
2016-07-17T11:05:01.896Z,265
2016-07-17T11:06:01.884Z,245
2016-07-17T11:07:01.997Z,220
2016-07-17T11:08:01.200Z,230
2016-07-17T11:09:01.908Z,250
2016-07-17T11:10:01.878Z,265
2016-07-17T11:11:02.623Z,265
2016-07-17T11:12:01.138Z,240
2016-07-17T11:13:01.842Z,240
2016-07-17T11:14:02.556Z,245
2016-07-17T11:15:02.571Z,240
2016-07-17T11:16:01.852Z,220
2016-07-17T11:17:01.821Z,200
2016-07-17T11:18:00.385Z,190
2016-07-17T11:19:01.112Z,230
2016-07-17T11:20:01.107Z,220
2016-07-17T11:21:01.878Z,210
2016-07-17T11:22:01.807Z,180
2016-07-17T11:23:01.786Z,170
2016-07-17T11:24:02.527Z,170
2016-07-17T11:25:01.098Z,150
2016-07-17T11:26:02.487Z,135
2016-07-17T11:27:01.052Z,120
2016-07-17T11:28:01.759Z,105
2016-07-17T11:29:02.483Z,105
2016-07-17T11:30:02.480Z,115
2016-07-17T11:31:01.753Z,155
2016-07-17T11:32:01.737Z,175
2016-07-17T11:33:01.736Z,190
2016-07-17T11:34:01.750Z,200
2016-07-17T11:35:02.428Z,230
2016-07-17T11:36:02.676Z,360
2016-07-17T11:37:01.699Z,240
2016-07-17T11:38:02.435Z,260
2016-07-17T11:39:00.961Z,275
2016-07-17T11:40:00.264Z,265
2016-07-17T11:41:02.381Z,285
2016-07-17T11:42:02.367Z,235
2016-07-17T11:43:00.268Z,230
2016-07-17T11:44:02.430Z,380
2016-07-17T11:45:01.646Z,260
2016-07-17T11:46:00.925Z,245
2016-07-17T11:47:00.910Z,230
2016-07-17T11:48:00.908Z,215
2016-07-17T11:49:01.629Z,245
2016-07-17T11:50:00.898Z,270
2016-07-17T11:51:01.600Z,240
2016-07-17T11:52:01.598Z,245
2016-07-17T11:53:02.287Z,265
2016-07-17T11:54:02.347Z,390
2016-07-17T11:55:02.310Z,375
2016-07-17T11:56:01.587Z,365
2016-07-17T11:57:01.587Z,345
2016-07-17T11:58:00.140Z,165
2016-07-17T11:59:02.288Z,165
2016-07-17T12:00:00.825Z,160
2016-07-17T12:01:02.260Z,165
2016-07-17T12:02:01.560Z,170
2016-07-17T12:03:01.532Z,170
2016-07-17T12:04:02.249Z,145
2016-07-17T12:05:01.571Z,180
2016-07-17T12:06:00.813Z,110
2016-07-17T12:07:01.522Z,140
2016-07-17T12:08:00.816Z,95
2016-07-17T12:09:02.235Z,105
2016-07-17T12:10:02.200Z,90
2016-07-17T12:11:02.198Z,185
2016-07-17T12:12:02.200Z,125
2016-07-17T12:13:01.528Z,110
2016-07-17T12:14:00.750Z,100
2016-07-17T12:15:01.521Z,120
2016-07-17T12:16:01.466Z,140
2016-07-17T12:17:02.241Z,90
2016-07-17T12:18:00.760Z,65
2016-07-17T12:19:00.743Z,55
2016-07-17T12:20:02.150Z,50
2016-07-17T12:21:02.170Z,50
2016-07-17T12:22:00.710Z,65
2016-07-17T12:23:01.457Z,135
2016-07-17T12:24:02.141Z,170
2016-07-17T12:25:01.468Z,85
2016-07-17T12:26:01.400Z,130
2016-07-17T12:27:02.150Z,125
2016-07-17T12:28:01.400Z,135
2016-07-17T12:29:01.396Z,105
2016-07-17T12:30:01.395Z,145
2016-07-17T12:31:02.099Z,140
2016-07-17T12:32:02.089Z,75
2016-07-17T12:33:01.408Z,95
2016-07-17T12:34:00.644Z,150
2016-07-17T12:35:02.060Z,80
2016-07-17T12:35:59.920Z,75
2016-07-17T12:37:01.334Z,85
2016-07-17T12:38:02.049Z,65
2016-07-17T12:39:00.608Z,60
2016-07-17T12:40:00.682Z,65
2016-07-17T12:41:00.659Z,65
2016-07-17T12:42:00.593Z,60
2016-07-17T12:43:01.300Z,60
2016-07-17T12:44:01.309Z,115
2016-07-17T12:45:02.021Z,125
2016-07-17T12:46:01.998Z,120
2016-07-17T12:47:01.991Z,65
2016-07-17T12:48:00.556Z,70
2016-07-17T12:49:02.006Z,70
2016-07-17T12:50:00.560Z,70
2016-07-17T12:51:00.538Z,90
2016-07-17T12:52:01.341Z,55
2016-07-17T12:53:00.529Z,50
2016-07-17T12:54:01.949Z,105
2016-07-17T12:55:01.221Z,55
2016-07-17T12:56:00.506Z,55
2016-07-17T12:57:01.936Z,110
2016-07-17T12:58:01.269Z,115
2016-07-17T12:59:01.209Z,110
2016-07-17T13:00:01.280Z,160
2016-07-17T13:01:01.905Z,145
2016-07-17T13:02:01.923Z,155
2016-07-17T13:03:01.192Z,160
2016-07-17T13:04:00.500Z,160
2016-07-17T13:04:59.728Z,160
2016-07-17T13:06:01.158Z,160
2016-07-17T13:07:01.158Z,160
2016-07-17T13:07:59.709Z,160
2016-07-17T13:09:01.850Z,160
2016-07-17T13:10:01.909Z,75
2016-07-17T13:11:01.855Z,90
2016-07-17T13:12:01.160Z,170
2016-07-17T13:13:00.405Z,170
2016-07-17T13:14:01.837Z,160
2016-07-17T13:15:01.094Z,160
2016-07-17T13:16:01.814Z,160
2016-07-17T13:17:00.447Z,70
2016-07-17T13:18:00.374Z,65
2016-07-17T13:19:00.419Z,65
2016-07-17T13:20:00.369Z,60
2016-07-17T13:21:01.098Z,60
2016-07-17T13:22:01.059Z,65
2016-07-17T13:23:01.771Z,70
2016-07-17T13:24:01.072Z,65
2016-07-17T13:25:00.415Z,65
2016-07-17T13:26:01.096Z,95
2016-07-17T13:27:01.071Z,80
2016-07-17T13:27:59.601Z,95
2016-07-17T13:29:00.300Z,100
2016-07-17T13:29:58.867Z,65
2016-07-17T13:31:00.999Z,150
2016-07-17T13:32:01.014Z,70
2016-07-17T13:33:01.717Z,135
2016-07-17T13:34:00.281Z,140
2016-07-17T13:35:01.070Z,110
2016-07-17T13:36:01.700Z,95
2016-07-17T13:37:00.998Z,155
2016-07-17T13:38:00.249Z,145
2016-07-17T13:39:01.749Z,145
2016-07-17T13:40:00.945Z,145
2016-07-17T13:41:01.014Z,145
2016-07-17T13:42:00.945Z,145
2016-07-17T13:43:01.662Z,150
2016-07-17T13:44:00.313Z,145
2016-07-17T13:45:00.221Z,145
2016-07-17T13:45:59.520Z,145
2016-07-17T13:47:01.037Z,150
2016-07-17T13:48:00.201Z,150
2016-07-17T13:49:00.906Z,150
2016-07-17T13:50:00.908Z,150
2016-07-17T13:51:00.180Z,155
2016-07-17T13:52:00.879Z,140
2016-07-17T13:53:00.172Z,75
2016-07-17T13:54:00.876Z,135
2016-07-17T13:54:59.440Z,155
2016-07-17T13:56:00.873Z,80
2016-07-17T13:57:00.180Z,155
2016-07-17T13:58:01.576Z,70
2016-07-17T13:59:00.862Z,65
2016-07-17T14:00:00.186Z,70
2016-07-17T14:01:01.546Z,75
2016-07-17T14:02:00.939Z,70
2016-07-17T14:03:00.111Z,90
2016-07-17T14:04:00.847Z,160
2016-07-17T14:05:01.532Z,150
2016-07-17T14:06:01.532Z,145
2016-07-17T14:07:00.807Z,140
2016-07-17T14:08:00.850Z,145
2016-07-17T14:09:00.068Z,140
2016-07-17T14:10:00.795Z,75
2016-07-17T14:11:01.497Z,145
2016-07-17T14:11:59.333Z,145
2016-07-17T14:13:00.068Z,145